Airfield :
LOGIN :

Register | Disclaimer

   EN    FR    IT 

 










Legend :    VFR   Marginal VFR   IFR   Intensive IFR   Very Intensive IFR
Visi :
Ceiling :
>= 8 km
>= 3000ft
5 to 8 km
1000 to 3000 ft
1500m to 5 km
500 to 1000 ft
800 to 1500m
200 to 500 ft
< 800m
< 200 ft
Symbols :   Thunderstorms  Fog  Heavy snow  Heavy precipitations  Wind > 20 kt
SIGMETs :     Misc.  Thunderstorms  Icing  Turbulence  Mountain Waves  Volcanic Ashes






- Airport Elevation : 233 ft
- IATA code : REU


LERS - Reus Tarragona

CURRENT METAR :
  • 050000Z AUTO VRB02KT 9999 OVC028 22/19 Q1017

EXPIRED METARs :
  • 042330Z AUTO VRB02KT 9999 SCT027 BKN034 22/18 Q1017
  • 042300Z AUTO 04003KT 360V110 9999 BKN028 22/19 Q1017
  • 042230Z AUTO 01004KT 9999 BKN027 BKN036 23/19 Q1017
  • 042200Z 02004KT 350V060 9999 SCT026 23/19 Q1017
  • 042130Z 05003KT 010V100 9999 SCT028 23/18 Q1017

TAF TAF LERS
Valid from the 04 at 21:00 until the 05 at 21:00 UTC


042000Z 0421/0521 VRB04KT 9999 FEW014 TX32/0512Z TN18/0505Z
BECMG 0509/0511 21012KT
BECMG 0517/0519 VRB04KT



MET'MAP, your aeronautical weather chart ! - Copyright ORBIFLY December 2007 - Disclaimer

ORBIFLY MET'MAP TEAM :

Programming & Development : Alexandra Zaïnal
Concept & original design : Baudouin d'Aumeries
Assistance for programming : Marc-Olivier Méhu
Technical & hardware support : Manuel Goepfert

Contact : metmap@orbifly.com




SOURCES & CREDITS :

   NOAA